Time;durP1;ratioP1;P1;durP2;ratioP2;P2;SDS_P1;SDS_P2;PMS_P1;PMS_P2;Temp;Humidity;BMP_temperature;BMP_pressure;BME280_temperature;BME280_humidity;BME280_pressure;Samples;Min_cycle;Max_cycle;Signal;HPM_P1;HPM_P2
2022/05/09 00:01:48;;;;;;;18.17;6.10;;;9.20;99.90;;;;;;5083164;28;20064;-73
2022/05/09 00:04:13;;;;;;;16.15;6.43;;;9.20;99.90;;;;;;5071579;28;20044;-73
2022/05/09 00:06:39;;;;;;;23.17;6.57;;;9.20;99.90;;;;;;5089182;28;20040;-73
2022/05/09 00:09:05;;;;;;;17.80;6.20;;;9.20;99.90;;;;;;5088651;28;20144;-73
2022/05/09 00:11:32;;;;;;;14.95;5.80;;;9.20;99.90;;;;;;5085193;28;20498;-73
2022/05/09 00:13:58;;;;;;;15.70;6.30;;;9.10;99.90;;;;;;5086063;28;20195;-73
2022/05/09 00:16:23;;;;;;;20.88;6.80;;;9.10;99.90;;;;;;5087900;28;20175;-73
2022/05/09 00:18:50;;;;;;;19.70;5.85;;;9.00;99.90;;;;;;5085737;28;20032;-73
2022/05/09 00:21:16;;;;;;;19.58;6.43;;;9.00;99.90;;;;;;5106401;28;20051;-72
2022/05/09 00:23:41;;;;;;;17.10;6.22;;;9.00;99.90;;;;;;5089131;28;20032;-72
2022/05/09 00:26:07;;;;;;;15.98;6.25;;;9.10;99.90;;;;;;5091397;28;20048;-73
2022/05/09 00:28:33;;;;;;;16.92;6.35;;;9.00;99.90;;;;;;5093835;28;20052;-72
2022/05/09 00:30:59;;;;;;;17.30;6.57;;;9.00;99.90;;;;;;5089527;28;20098;-73
2022/05/09 00:33:25;;;;;;;17.08;6.85;;;9.00;99.90;;;;;;5088198;28;20040;-73
2022/05/09 00:35:52;;;;;;;18.33;6.97;;;9.00;99.90;;;;;;5087551;28;20127;-72
2022/05/09 00:38:18;;;;;;;16.77;5.73;;;8.90;99.90;;;;;;5091573;28;20075;-73
2022/05/09 00:43:33;;;;;;;19.90;6.35;;;8.90;99.90;;;;;;5088711;28;20043;-73
2022/05/09 00:45:59;;;;;;;16.42;6.20;;;8.80;99.90;;;;;;5096482;28;20398;-73
2022/05/09 00:48:25;;;;;;;19.08;6.28;;;8.80;99.90;;;;;;5082368;28;20044;-73
2022/05/09 00:50:52;;;;;;;17.70;6.18;;;8.80;99.90;;;;;;5087004;28;20119;-72
2022/05/09 00:53:18;;;;;;;18.88;6.03;;;8.80;99.90;;;;;;5091924;28;20418;-73
2022/05/09 00:55:49;;;;;;;16.88;5.95;;;8.80;99.90;;;;;;5084160;28;20428;-73
2022/05/09 00:58:21;;;;;;;16.70;6.00;;;8.80;99.90;;;;;;5089315;28;20437;-72
2022/05/09 01:00:51;;;;;;;16.80;6.13;;;8.80;99.90;;;;;;5086788;28;20125;-72
2022/05/09 01:03:25;;;;;;;17.70;5.75;;;8.80;99.90;;;;;;5085465;28;20055;-73
2022/05/09 01:05:50;;;;;;;15.15;5.70;;;8.80;99.90;;;;;;5087992;28;20048;-72
2022/05/09 01:08:20;;;;;;;14.93;6.43;;;8.80;99.90;;;;;;5083066;28;20043;-73
2022/05/09 01:10:47;;;;;;;17.48;6.28;;;8.80;99.90;;;;;;5101948;28;20039;-73
2022/05/09 01:13:15;;;;;;;18.45;6.75;;;8.70;99.90;;;;;;5094104;28;20399;-73
2022/05/09 01:15:43;;;;;;;16.25;5.68;;;8.70;99.90;;;;;;5090451;28;20066;-73
2022/05/09 01:18:11;;;;;;;20.17;6.03;;;8.70;99.90;;;;;;5089060;28;20475;-73
2022/05/09 01:20:37;;;;;;;17.35;6.32;;;8.80;99.90;;;;;;5114834;27;20032;-73
2022/05/09 01:23:03;;;;;;;19.17;7.05;;;8.80;99.90;;;;;;5087391;28;20040;-73
2022/05/09 01:25:29;;;;;;;14.40;6.53;;;8.70;99.90;;;;;;5088131;28;20487;-73
2022/05/09 01:27:55;;;;;;;17.92;6.93;;;8.70;99.90;;;;;;5090630;28;20089;-73
2022/05/09 01:30:26;;;;;;;14.65;5.97;;;8.70;99.90;;;;;;5086795;28;20036;-73
2022/05/09 01:33:03;;;;;;;14.27;6.03;;;8.70;99.90;;;;;;5092873;28;20054;-73
2022/05/09 01:35:38;;;;;;;17.63;6.32;;;8.60;99.90;;;;;;5089536;28;20047;-73
2022/05/09 01:38:35;;;;;;;20.67;6.90;;;8.60;99.90;;;;;;5087028;28;20044;-74
2022/05/09 01:41:01;;;;;;;;;;;8.60;99.90;;;;;;5068782;28;20078;-73
2022/05/09 01:43:37;;;;;;;19.88;6.78;;;8.50;99.90;;;;;;5088331;28;19928;-73
2022/05/09 01:46:06;;;;;;;18.77;6.93;;;8.50;99.90;;;;;;5087037;28;20396;-73
2022/05/09 01:51:16;;;;;;;17.33;6.85;;;8.40;99.90;;;;;;5087035;28;20155;-73
2022/05/09 01:53:45;;;;;;;16.65;6.88;;;8.40;99.90;;;;;;5087910;28;20139;-73
2022/05/09 01:56:13;;;;;;;16.48;7.03;;;8.30;99.90;;;;;;5087588;28;20082;-73
2022/05/09 01:58:38;;;;;;;14.43;6.05;;;8.20;99.90;;;;;;5110842;28;20043;-74
2022/05/09 02:01:06;;;;;;;20.17;6.65;;;8.10;99.90;;;;;;5099053;28;20105;-74
2022/05/09 02:03:32;;;;;;;19.33;6.43;;;8.10;99.90;;;;;;5111835;28;20047;-73
2022/05/09 02:05:57;;;;;;;15.20;6.18;;;8.00;99.90;;;;;;5083690;28;20092;-73
2022/05/09 02:08:23;;;;;;;18.65;7.40;;;8.00;99.90;;;;;;5093506;28;20047;-74
2022/05/09 02:10:49;;;;;;;16.67;6.28;;;8.00;99.90;;;;;;5102010;28;20460;-73
2022/05/09 02:13:15;;;;;;;22.23;7.10;;;8.00;99.90;;;;;;5087877;28;20058;-73
2022/05/09 02:15:40;;;;;;;20.25;7.13;;;8.00;99.90;;;;;;5087243;28;20040;-73
2022/05/09 02:18:06;;;;;;;22.13;8.10;;;8.00;99.90;;;;;;5089930;28;20044;-73
2022/05/09 02:20:32;;;;;;;16.60;7.15;;;7.90;99.90;;;;;;5083821;28;20171;-73
2022/05/09 02:22:57;;;;;;;20.67;7.53;;;7.90;99.90;;;;;;5109512;28;20557;-73
2022/05/09 02:25:33;;;;;;;17.95;7.03;;;7.90;99.90;;;;;;5090055;28;20082;-73
2022/05/09 02:28:00;;;;;;;18.60;6.60;;;7.90;99.90;;;;;;5088904;28;20044;-73
2022/05/09 02:30:27;;;;;;;17.42;7.35;;;7.80;99.90;;;;;;5088101;28;20044;-73
2022/05/09 02:32:53;;;;;;;14.50;7.18;;;7.80;99.90;;;;;;5098797;28;20491;-73
2022/05/09 02:35:21;;;;;;;18.63;7.35;;;7.70;99.90;;;;;;5086728;28;20074;-73
2022/05/09 02:37:47;;;;;;;;;;;7.60;99.90;;;;;;5097205;28;20109;-74
2022/05/09 02:40:13;;;;;;;16.30;7.05;;;7.60;99.90;;;;;;5103783;28;19941;-73
2022/05/09 02:42:39;;;;;;;16.42;7.30;;;7.50;99.90;;;;;;5094006;28;20035;-73
2022/05/09 02:45:06;;;;;;;21.08;7.50;;;7.50;99.90;;;;;;5109780;28;20085;-73
2022/05/09 02:47:32;;;;;;;17.52;7.97;;;7.50;99.90;;;;;;5087803;28;20690;-73
2022/05/09 02:49:57;;;;;;;21.42;7.95;;;7.50;99.90;;;;;;5088450;28;20048;-73
2022/05/09 02:52:24;;;;;;;21.08;7.57;;;7.50;99.90;;;;;;5089033;28;20056;-73
2022/05/09 02:54:52;;;;;;;22.10;8.77;;;7.50;99.90;;;;;;5103630;28;20044;-73
2022/05/09 02:57:18;;;;;;;19.02;8.13;;;7.50;99.90;;;;;;5088968;28;20592;-72
2022/05/09 02:59:44;;;;;;;18.20;8.25;;;7.50;99.90;;;;;;5091048;28;20040;-73
2022/05/09 03:02:10;;;;;;;18.35;8.18;;;7.50;99.90;;;;;;5089259;28;20051;-73
2022/05/09 03:04:41;;;;;;;20.65;7.88;;;7.50;99.90;;;;;;5090247;28;20115;-74
2022/05/09 03:07:13;;;;;;;19.00;7.00;;;7.50;99.90;;;;;;5088890;28;20050;-73
2022/05/09 03:09:41;;;;;;;20.63;7.50;;;7.50;99.90;;;;;;5088388;28;20067;-73
2022/05/09 03:12:08;;;;;;;17.13;7.22;;;7.50;99.90;;;;;;5104931;28;20093;-73
2022/05/09 03:14:35;;;;;;;18.70;7.72;;;7.50;99.90;;;;;;5110640;28;20050;-73
2022/05/09 03:17:01;;;;;;;19.45;8.07;;;7.40;99.90;;;;;;5102587;28;20043;-73
2022/05/09 03:19:27;;;;;;;18.38;7.72;;;7.40;99.90;;;;;;5103230;28;20038;-73
2022/05/09 03:21:53;;;;;;;18.05;8.43;;;7.40;99.90;;;;;;5101118;28;20044;-73
2022/05/09 03:24:21;;;;;;;22.42;8.40;;;7.40;99.90;;;;;;5088895;28;20047;-73
2022/05/09 03:26:47;;;;;;;17.52;7.82;;;7.40;99.90;;;;;;5088568;28;20557;-73
2022/05/09 03:29:15;;;;;;;18.05;8.30;;;7.40;99.90;;;;;;5107069;28;20115;-73
2022/05/09 03:31:41;;;;;;;21.58;9.18;;;7.40;99.90;;;;;;5105899;28;20100;-73
2022/05/09 03:34:06;;;;;;;17.27;8.55;;;7.40;99.90;;;;;;5102524;28;20044;-73
2022/05/09 03:36:33;;;;;;;19.10;8.25;;;7.40;99.90;;;;;;5101997;28;20071;-73
2022/05/09 03:38:59;;;;;;;18.33;8.27;;;7.40;99.90;;;;;;5104715;28;20115;-74
2022/05/09 03:41:24;;;;;;;20.67;8.10;;;7.30;99.90;;;;;;5108639;28;20530;-73
2022/05/09 03:43:50;;;;;;;20.65;8.18;;;7.30;99.90;;;;;;5109685;28;20143;-73
2022/05/09 03:46:16;;;;;;;20.50;8.73;;;7.20;99.90;;;;;;5108480;28;20100;-73
2022/05/09 03:48:42;;;;;;;16.85;8.43;;;7.20;99.90;;;;;;5107915;28;20559;-73
2022/05/09 03:51:08;;;;;;;17.90;8.25;;;7.10;99.90;;;;;;5102389;28;20070;-73
2022/05/09 03:53:34;;;;;;;17.73;8.73;;;7.10;99.90;;;;;;5110116;28;20051;-73
2022/05/09 03:56:01;;;;;;;19.08;9.15;;;7.10;99.90;;;;;;5096147;28;20044;-73
2022/05/09 03:58:27;;;;;;;19.02;8.32;;;7.20;99.90;;;;;;5091330;28;20058;-73
2022/05/09 04:00:53;;;;;;;18.20;8.18;;;7.20;99.90;;;;;;5109062;28;20042;-73
2022/05/09 04:03:19;;;;;;;23.10;9.13;;;7.10;99.90;;;;;;5107586;28;20685;-73
2022/05/09 04:05:45;;;;;;;20.52;9.07;;;7.20;99.90;;;;;;5109602;28;20031;-73
2022/05/09 04:08:17;;;;;;;20.02;8.98;;;7.20;99.90;;;;;;5089642;28;20044;-74
2022/05/09 04:10:44;;;;;;;23.50;9.25;;;7.20;99.90;;;;;;5087323;28;20052;-73
2022/05/09 04:13:11;;;;;;;27.90;10.05;;;7.30;99.90;;;;;;5107150;28;20074;-73
2022/05/09 04:18:26;;;;;;;23.10;9.27;;;7.30;99.90;;;;;;5105568;28;20071;-73
2022/05/09 04:20:51;;;;;;;19.33;9.48;;;7.20;99.90;;;;;;5106653;28;20023;-73
2022/05/09 04:23:18;;;;;;;18.40;9.23;;;7.30;99.90;;;;;;5108168;28;20497;-73
2022/05/09 04:25:45;;;;;;;19.75;10.02;;;7.30;99.90;;;;;;5098436;28;20055;-73
2022/05/09 04:28:11;;;;;;;19.67;8.65;;;7.30;99.90;;;;;;5103216;28;20044;-73
2022/05/09 04:30:38;;;;;;;20.48;9.13;;;7.30;99.90;;;;;;5088347;28;20051;-73
2022/05/09 04:33:05;;;;;;;;;;;7.40;99.90;;;;;;5088770;28;20055;-73
2022/05/09 04:35:32;;;;;;;20.70;9.43;;;7.30;99.90;;;;;;5085800;28;20279;-73
2022/05/09 04:37:59;;;;;;;19.75;8.93;;;7.40;99.90;;;;;;5086067;28;20040;-73
2022/05/09 04:40:28;;;;;;;21.90;9.30;;;7.40;99.90;;;;;;5088408;28;20059;-73
2022/05/09 04:42:56;;;;;;;19.23;9.63;;;7.40;99.90;;;;;;5100979;28;20131;-73
2022/05/09 04:45:22;;;;;;;;;;;7.40;99.90;;;;;;5110135;28;20039;-71
2022/05/09 04:47:50;;;;;;;22.58;9.50;;;7.40;99.90;;;;;;5113427;28;20537;-73
2022/05/09 04:50:18;;;;;;;23.13;10.40;;;7.40;99.90;;;;;;5117249;28;20063;-73
2022/05/09 04:52:44;;;;;;;22.25;9.25;;;7.40;99.90;;;;;;5103056;28;20066;-73
2022/05/09 04:55:11;;;;;;;20.50;9.95;;;7.50;99.90;;;;;;5095615;28;20086;-74
2022/05/09 04:57:36;;;;;;;22.83;9.98;;;7.50;99.90;;;;;;5095910;28;20096;-73
2022/05/09 05:00:05;;;;;;;18.08;9.38;;;7.60;99.90;;;;;;5113613;28;20100;-74
2022/05/09 05:02:30;;;;;;;20.23;9.63;;;7.60;99.90;;;;;;5091204;28;20036;-73
2022/05/09 05:04:56;;;;;;;17.15;9.05;;;7.70;99.90;;;;;;5092205;28;20123;-73
2022/05/09 05:07:21;;;;;;;19.73;9.48;;;7.70;99.90;;;;;;5090834;28;20043;-74
2022/05/09 05:09:47;;;;;;;19.83;9.80;;;7.80;99.90;;;;;;5101226;28;20499;-74
2022/05/09 05:12:13;;;;;;;19.60;9.07;;;7.90;99.90;;;;;;5112916;28;20051;-73
2022/05/09 05:14:38;;;;;;;18.52;9.35;;;7.90;99.90;;;;;;5100656;28;20499;-74
2022/05/09 05:17:04;;;;;;;24.60;10.40;;;8.00;99.90;;;;;;5089365;28;20087;-73
2022/05/09 05:19:56;;;;;;;25.95;11.15;;;8.10;99.90;;;;;;5091302;28;20055;-73
2022/05/09 05:22:40;;;;;;;24.02;10.57;;;8.20;99.90;;;;;;5095335;28;20562;-73
2022/05/09 05:25:07;;;;;;;21.33;9.73;;;8.20;99.90;;;;;;5112178;28;20055;-73
2022/05/09 05:27:32;;;;;;;21.75;10.98;;;8.30;99.90;;;;;;5102806;28;20036;-73
2022/05/09 05:29:59;;;;;;;21.95;10.75;;;8.40;99.90;;;;;;5111694;28;20048;-73
2022/05/09 05:32:31;;;;;;;23.42;14.90;;;8.50;99.90;;;;;;5082112;28;20499;-74
2022/05/09 05:34:56;;;;;;;30.85;19.25;;;8.60;99.90;;;;;;5092071;28;20056;-72
2022/05/09 05:37:22;;;;;;;33.53;20.35;;;8.70;99.90;;;;;;5107972;28;20051;-73
2022/05/09 05:39:49;;;;;;;28.00;20.95;;;8.80;99.90;;;;;;5112323;28;20047;-73
2022/05/09 05:42:17;;;;;;;27.93;19.43;;;8.90;99.90;;;;;;5088272;28;20078;-72
2022/05/09 05:44:44;;;;;;;28.77;19.77;;;9.00;99.90;;;;;;5087103;28;20040;-73
2022/05/09 05:47:12;;;;;;;32.25;20.98;;;9.00;99.90;;;;;;5095085;28;20044;-73
2022/05/09 05:49:39;;;;;;;31.08;23.15;;;9.10;99.90;;;;;;5100665;28;20076;-73
2022/05/09 05:52:06;;;;;;;31.55;23.02;;;9.20;99.90;;;;;;5106900;28;20043;-72
2022/05/09 05:54:36;;;;;;;33.30;22.35;;;9.20;99.90;;;;;;5098509;28;20131;-72
2022/05/09 05:57:03;;;;;;;30.13;21.90;;;9.30;99.90;;;;;;5089930;28;20055;-74
2022/05/09 05:59:29;;;;;;;30.65;21.92;;;9.40;99.90;;;;;;5089200;28;20062;-73
2022/05/09 06:01:55;;;;;;;33.20;20.50;;;9.50;99.90;;;;;;5090321;28;20539;-73
2022/05/09 06:04:21;;;;;;;32.20;19.58;;;9.60;99.90;;;;;;5110135;28;20589;-73
2022/05/09 06:06:47;;;;;;;29.52;18.20;;;9.60;99.90;;;;;;5102114;28;20047;-73
2022/05/09 06:09:13;;;;;;;29.52;17.50;;;9.70;99.90;;;;;;5107639;28;20546;-73
2022/05/09 06:11:40;;;;;;;24.33;13.75;;;9.80;99.90;;;;;;5092722;28;20054;-73
2022/05/09 06:14:07;;;;;;;24.75;13.20;;;9.90;99.90;;;;;;5101466;28;20035;-73
2022/05/09 06:16:33;;;;;;;;;;;9.90;99.90;;;;;;5110555;28;20440;-73
2022/05/09 06:19:00;;;;;;;25.33;13.23;;;10.00;99.90;;;;;;5109068;28;19927;-73
2022/05/09 06:21:29;;;;;;;21.15;12.45;;;10.10;99.90;;;;;;5106609;28;20225;-73
2022/05/09 06:23:55;;;;;;;23.35;11.90;;;10.20;99.90;;;;;;5087138;28;20056;-73
2022/05/09 06:26:22;;;;;;;23.10;11.38;;;10.30;99.90;;;;;;5088151;28;20051;-73
2022/05/09 06:28:48;;;;;;;25.35;11.45;;;10.40;99.90;;;;;;5101771;28;20512;-73
2022/05/09 06:31:13;;;;;;;22.50;9.93;;;10.50;99.90;;;;;;5110790;28;20044;-73
2022/05/09 06:33:42;;;;;;;23.15;10.65;;;10.60;99.90;;;;;;5110312;28;20055;-73
2022/05/09 06:36:07;;;;;;;19.45;9.85;;;10.70;99.90;;;;;;5098821;28;20153;-73
2022/05/09 06:38:34;;;;;;;22.58;10.20;;;10.80;99.90;;;;;;5087036;28;20043;-73
2022/05/09 06:41:02;;;;;;;21.52;10.00;;;10.80;99.90;;;;;;5105052;28;20040;-73
2022/05/09 06:43:30;;;;;;;23.88;9.88;;;10.90;99.90;;;;;;5088368;28;20122;-73
2022/05/09 06:45:56;;;;;;;;;;;11.00;99.90;;;;;;5092402;28;20111;-73
2022/05/09 06:48:22;;;;;;;23.42;10.73;;;11.10;99.90;;;;;;5109466;28;19920;-74
2022/05/09 06:50:47;;;;;;;20.17;9.73;;;11.20;99.90;;;;;;5092688;28;20060;-73
2022/05/09 06:53:13;;;;;;;21.98;9.55;;;11.30;99.90;;;;;;5107640;28;20043;-73
2022/05/09 06:55:39;;;;;;;22.02;9.75;;;11.40;99.90;;;;;;5103866;28;20425;-73
2022/05/09 06:58:07;;;;;;;17.65;9.30;;;11.50;99.90;;;;;;5097321;28;20109;-74
2022/05/09 07:00:33;;;;;;;20.30;9.57;;;11.60;99.90;;;;;;5108176;28;20724;-75
2022/05/09 07:02:58;;;;;;;19.52;9.20;;;11.70;99.90;;;;;;5085909;28;20036;-72
2022/05/09 07:05:24;;;;;;;19.85;8.90;;;11.70;99.90;;;;;;5092055;28;20100;-71
2022/05/09 07:07:50;;;;;;;23.42;9.07;;;11.80;99.90;;;;;;5112030;27;20059;-71
2022/05/09 07:10:17;;;;;;;16.35;8.90;;;11.90;99.90;;;;;;5086936;28;20391;-72
2022/05/09 07:12:47;;;;;;;;;;;12.10;99.90;;;;;;5080462;28;20067;-70
2022/05/09 07:15:22;;;;;;;16.77;8.23;;;12.10;99.90;;;;;;5083349;28;19920;-70
2022/05/09 07:17:50;;;;;;;20.73;8.77;;;12.20;99.90;;;;;;5083865;28;20081;-72
2022/05/09 07:20:16;;;;;;;18.67;8.98;;;12.30;99.90;;;;;;5085205;28;20052;-72
2022/05/09 07:22:43;;;;;;;18.55;9.07;;;12.40;99.90;;;;;;5089523;28;20391;-72
2022/05/09 07:25:13;;;;;;;20.60;8.83;;;12.60;99.90;;;;;;5088350;28;20051;-72
2022/05/09 07:27:42;;;;;;;18.90;8.23;;;12.70;99.90;;;;;;5082890;28;20398;-72
2022/05/09 07:30:18;;;;;;;19.27;8.32;;;12.80;99.90;;;;;;5091011;28;20047;-71
2022/05/09 07:32:44;;;;;;;18.85;8.63;;;12.90;99.90;;;;;;5083520;28;20169;-72
2022/05/09 07:35:11;;;;;;;24.20;9.48;;;13.00;99.90;;;;;;5098742;28;20079;-72
2022/05/09 07:37:38;;;;;;;;;;;13.10;99.90;;;;;;5110027;28;20050;-71
2022/05/09 07:40:05;;;;;;;22.70;9.17;;;13.20;99.90;;;;;;5088808;28;19930;-76
2022/05/09 07:42:31;;;;;;;17.88;8.63;;;13.30;99.90;;;;;;5098555;28;20039;-72
2022/05/09 07:44:57;;;;;;;19.33;8.18;;;13.40;99.90;;;;;;5091362;28;20131;-72
2022/05/09 07:47:25;;;;;;;17.13;8.68;;;13.50;99.90;;;;;;5103115;28;20676;-72
2022/05/09 07:49:51;;;;;;;17.55;8.77;;;13.60;99.90;;;;;;5101476;28;20134;-72
2022/05/09 07:52:17;;;;;;;17.58;8.65;;;13.70;99.90;;;;;;5095797;28;20139;-74
2022/05/09 07:54:43;;;;;;;17.65;8.90;;;13.80;99.90;;;;;;5094491;28;20059;-73
2022/05/09 07:57:09;;;;;;;19.40;9.00;;;13.90;99.90;;;;;;5094626;28;20144;-73
2022/05/09 07:59:35;;;;;;;19.98;9.52;;;14.00;99.90;;;;;;5096272;28;20680;-72
2022/05/09 08:02:01;;;;;;;20.17;8.27;;;14.10;99.90;;;;;;5097230;28;20120;-73
2022/05/09 08:04:26;;;;;;;18.27;8.05;;;14.20;99.90;;;;;;5104738;28;20070;-73
2022/05/09 08:06:52;;;;;;;15.95;7.20;;;14.30;99.90;;;;;;5104138;28;20071;-71
2022/05/09 08:09:18;;;;;;;16.52;7.32;;;14.40;99.90;;;;;;5105002;28;20032;-73
2022/05/09 08:11:44;;;;;;;12.50;7.15;;;14.60;99.90;;;;;;5098783;28;20204;-72
2022/05/09 08:14:11;;;;;;;22.98;7.47;;;14.70;99.90;;;;;;5092668;28;20052;-72
2022/05/09 08:16:37;;;;;;;18.38;7.50;;;14.80;99.90;;;;;;5081955;28;20052;-72
2022/05/09 08:19:03;;;;;;;16.05;6.93;;;14.90;99.90;;;;;;5081100;28;20045;-72
2022/05/09 08:21:29;;;;;;;18.95;7.07;;;15.00;99.90;;;;;;5089457;28;20044;-72
2022/05/09 08:23:55;;;;;;;16.58;6.35;;;15.10;99.90;;;;;;5111275;28;20143;-71
2022/05/09 08:26:22;;;;;;;16.63;7.25;;;15.20;99.90;;;;;;5101424;28;20395;-71
2022/05/09 08:28:48;;;;;;;17.85;7.25;;;15.30;99.90;;;;;;5088307;28;20051;-70
2022/05/09 08:31:18;;;;;;;16.98;6.63;;;15.40;99.90;;;;;;5090160;28;20047;-71
2022/05/09 08:33:46;;;;;;;24.65;6.95;;;15.50;99.90;;;;;;5088835;28;20044;-71
2022/05/09 08:36:45;;;;;;;15.25;5.72;;;15.70;99.90;;;;;;5101298;28;20040;-70
2022/05/09 08:38:58;;;;;;;13.50;5.15;;;15.70;99.90;;;;;;5101614;28;20494;-71
2022/05/09 08:41:24;;;;;;;13.52;5.60;;;15.90;99.90;;;;;;5090257;28;20131;-71
2022/05/09 08:44:27;;;;;;;20.55;7.90;;;16.00;99.90;;;;;;5091026;28;20036;-71
2022/05/09 08:47:22;;;;;;;20.98;7.22;;;16.20;99.90;;;;;;5095141;28;20042;-71
2022/05/09 08:50:33;;;;;;;15.13;6.32;;;16.30;99.90;;;;;;5080548;28;20071;-70
2022/05/09 08:53:02;;;;;;;14.43;4.82;;;16.40;99.90;;;;;;5011303;28;20087;-70
2022/05/09 08:55:35;;;;;;;13.20;4.97;;;16.50;99.90;;;;;;5097218;28;20062;-70
2022/05/09 08:58:28;;;;;;;11.15;4.03;;;16.70;99.60;;;;;;5090434;28;20040;-71
2022/05/09 09:00:55;;;;;;;57.88;7.80;;;16.80;98.20;;;;;;5093660;28;20048;-71
2022/05/09 09:03:39;;;;;;;14.43;4.97;;;16.90;98.70;;;;;;5087948;28;20039;-72
2022/05/09 09:06:28;;;;;;;26.55;5.60;;;17.00;98.00;;;;;;5091938;28;20047;-72
2022/05/09 09:09:10;;;;;;;12.43;4.63;;;17.10;96.40;;;;;;5090673;28;20048;-71
2022/05/09 09:12:03;;;;;;;12.60;4.18;;;17.20;94.60;;;;;;5090374;28;20040;-71
2022/05/09 09:14:57;;;;;;;12.32;3.58;;;17.20;94.00;;;;;;5068547;28;20594;-72
2022/05/09 09:17:42;;;;;;;14.32;3.63;;;17.30;94.30;;;;;;5094283;28;20120;-72
2022/05/09 09:20:14;;;;;;;12.95;3.25;;;17.40;92.20;;;;;;5096542;28;20048;-71
2022/05/09 09:23:04;;;;;;;11.52;3.60;;;17.60;87.40;;;;;;5088657;28;20040;-71
2022/05/09 09:26:06;;;;;;;11.48;3.65;;;17.70;75.30;;;;;;5092415;28;20198;-71
2022/05/09 09:28:49;;;;;;;10.25;3.70;;;17.70;69.90;;;;;;5100474;28;20046;-71
2022/05/09 09:31:29;;;;;;;9.73;3.35;;;17.70;69.50;;;;;;5091605;28;20052;-71
2022/05/09 09:34:05;;;;;;;10.68;3.33;;;17.80;71.90;;;;;;5094091;28;20078;-71
2022/05/09 09:36:39;;;;;;;10.50;3.42;;;17.90;69.60;;;;;;5093650;28;20372;-71
2022/05/09 09:39:17;;;;;;;15.20;4.30;;;18.00;77.00;;;;;;5103088;28;20040;-71
2022/05/09 09:41:43;;;;;;;11.13;3.22;;;18.10;70.20;;;;;;5104014;28;20035;-72
2022/05/09 09:44:18;;;;;;;9.27;3.15;;;18.30;73.10;;;;;;5099928;28;20147;-73
2022/05/09 09:47:09;;;;;;;10.20;3.15;;;18.40;66.00;;;;;;5111817;28;20094;-73
2022/05/09 09:49:40;;;;;;;8.52;2.85;;;18.50;61.10;;;;;;5101498;28;20805;-71
2022/05/09 09:52:24;;;;;;;8.50;3.17;;;18.50;62.60;;;;;;5088245;28;20058;-70
2022/05/09 09:55:07;;;;;;;9.15;3.10;;;18.60;68.80;;;;;;5075550;28;20049;-70
2022/05/09 09:57:36;;;;;;;9.52;3.10;;;18.70;63.40;;;;;;5103849;28;20044;-76
2022/05/09 10:00:34;;;;;;;11.05;3.22;;;18.80;63.20;;;;;;5104612;27;20363;-73
2022/05/09 10:03:21;;;;;;;9.38;4.10;;;18.90;60.40;;;;;;5095400;28;20097;-71
2022/05/09 10:05:49;;;;;;;7.53;3.13;;;18.90;60.00;;;;;;5090430;28;20059;-71
2022/05/09 10:08:37;;;;;;;10.52;3.70;;;19.10;60.50;;;;;;5106044;28;20051;-70
2022/05/09 10:11:19;;;;;;;8.20;3.50;;;19.20;65.50;;;;;;5097153;28;20046;-73
2022/05/09 10:13:48;;;;;;;10.02;3.50;;;19.20;62.40;;;;;;5102289;28;20508;-70
2022/05/09 10:16:41;;;;;;;13.30;3.80;;;19.20;59.60;;;;;;5097614;28;20079;-70
2022/05/09 10:19:12;;;;;;;13.00;4.50;;;19.30;63.60;;;;;;5102818;28;20447;-70
2022/05/09 10:24:48;;;;;;;11.82;3.80;;;19.50;60.30;;;;;;5106956;28;20048;-72
2022/05/09 10:27:23;;;;;;;9.30;3.83;;;19.60;61.50;;;;;;5102659;28;20051;-70
2022/05/09 10:30:00;;;;;;;12.10;3.72;;;19.70;63.30;;;;;;5081456;28;20032;-71
2022/05/09 10:32:32;;;;;;;11.88;3.70;;;19.80;60.20;;;;;;5083651;28;20475;-71
2022/05/09 10:35:07;;;;;;;9.35;3.55;;;20.00;59.50;;;;;;5098261;28;20097;-70
2022/05/09 10:37:54;;;;;;;9.48;3.58;;;20.00;58.90;;;;;;5102941;28;20130;-72
2022/05/09 10:40:30;;;;;;;10.85;4.20;;;20.10;62.60;;;;;;5096039;28;20048;-71
2022/05/09 10:43:06;;;;;;;13.15;3.50;;;20.20;58.10;;;;;;5100962;28;20488;-70
2022/05/09 10:45:44;;;;;;;11.82;3.95;;;20.30;57.50;;;;;;5086377;28;20082;-70
2022/05/09 10:48:21;;;;;;;14.38;4.25;;;20.40;59.90;;;;;;5100291;28;20044;-70
2022/05/09 10:51:21;;;;;;;11.07;3.50;;;20.40;55.40;;;;;;5102395;28;20056;-69
2022/05/09 10:53:55;;;;;;;9.95;3.70;;;20.50;60.30;;;;;;5089025;28;20101;-70
2022/05/09 10:56:28;;;;;;;7.63;3.47;;;20.50;61.60;;;;;;5087836;28;20052;-70
2022/05/09 10:58:57;;;;;;;13.35;3.97;;;20.50;58.90;;;;;;5098511;28;20055;-70
2022/05/09 11:01:28;;;;;;;12.80;3.38;;;20.60;59.10;;;;;;5103943;28;20035;-72
2022/05/09 11:03:55;;;;;;;10.98;3.90;;;20.50;58.40;;;;;;5100621;28;20246;-72
2022/05/09 11:06:39;;;;;;;9.20;3.58;;;20.70;55.90;;;;;;5091970;28;20068;-73
2022/05/09 11:09:27;;;;;;;8.93;3.30;;;20.70;59.50;;;;;;5084326;28;20131;-72
2022/05/09 11:12:13;;;;;;;9.30;3.25;;;20.90;58.40;;;;;;5092228;28;20044;-71
2022/05/09 11:15:11;;;;;;;8.82;3.55;;;21.00;62.10;;;;;;5088107;28;20036;-71
2022/05/09 11:18:16;;;;;;;11.10;3.50;;;21.10;59.40;;;;;;5085561;28;20377;-71
2022/05/09 11:20:56;;;;;;;12.43;3.70;;;21.30;58.00;;;;;;5076190;28;20126;-72
2022/05/09 11:23:48;;;;;;;16.33;6.03;;;21.40;54.40;;;;;;5095394;28;20111;-72
2022/05/09 11:26:41;;;;;;;12.20;4.32;;;21.60;53.30;;;;;;5083855;28;20063;-72
2022/05/09 11:29:44;;;;;;;9.95;3.42;;;21.50;52.80;;;;;;5093581;28;20047;-70
2022/05/09 11:32:13;;;;;;;13.40;3.70;;;21.50;54.80;;;;;;5090921;28;20051;-71
2022/05/09 11:35:12;;;;;;;9.25;3.53;;;21.60;55.30;;;;;;5108327;28;20543;-70
2022/05/09 11:38:23;;;;;;;11.65;3.40;;;21.70;53.90;;;;;;5107241;28;20130;-71
2022/05/09 11:41:14;;;;;;;9.18;3.50;;;21.70;54.10;;;;;;5092468;28;20271;-71
2022/05/09 11:43:57;;;;;;;7.45;3.22;;;21.70;54.50;;;;;;5095367;28;20118;-72
2022/05/09 11:46:54;;;;;;;7.72;3.22;;;21.80;56.30;;;;;;5086628;28;20048;-72
2022/05/09 11:49:25;;;;;;;9.68;3.50;;;22.00;55.40;;;;;;5088091;28;20087;-72
2022/05/09 11:52:01;;;;;;;10.45;3.10;;;22.00;55.10;;;;;;5090126;28;20047;-71
2022/05/09 11:54:35;;;;;;;8.07;3.00;;;22.00;56.80;;;;;;5086904;28;20036;-72
2022/05/09 11:57:11;;;;;;;8.10;3.35;;;22.20;55.10;;;;;;5098973;28;20051;-72
2022/05/09 11:59:47;;;;;;;8.23;3.10;;;22.30;54.30;;;;;;5096769;28;20060;-73
2022/05/09 12:02:13;;;;;;;14.48;3.47;;;22.30;54.70;;;;;;5108052;28;20312;-72
2022/05/09 12:04:41;;;;;;;12.07;3.80;;;22.40;53.50;;;;;;5094959;28;20471;-72
2022/05/09 12:07:27;;;;;;;10.95;3.13;;;22.50;55.40;;;;;;5106100;28;20119;-72
2022/05/09 12:10:17;;;;;;;10.75;3.63;;;22.60;53.40;;;;;;5066463;28;20109;-72
2022/05/09 12:12:54;;;;;;;8.95;3.30;;;22.70;56.30;;;;;;5108803;28;20036;-72
2022/05/09 12:15:20;;;;;;;8.75;2.70;;;22.70;53.50;;;;;;5100863;28;20046;-73
2022/05/09 12:17:53;;;;;;;9.13;3.22;;;22.70;54.30;;;;;;5088372;28;20048;-73
2022/05/09 12:20:27;;;;;;;8.52;3.30;;;22.80;56.40;;;;;;5099941;28;20048;-71
2022/05/09 12:22:56;;;;;;;7.45;3.20;;;22.80;53.90;;;;;;5106875;28;20047;-73
2022/05/09 12:25:34;;;;;;;9.65;3.53;;;22.80;54.30;;;;;;5089578;28;20043;-71
2022/05/09 12:28:05;;;;;;;9.05;3.17;;;22.80;51.70;;;;;;5102444;28;20046;-72
2022/05/09 12:30:52;;;;;;;8.60;3.08;;;22.80;51.60;;;;;;5104506;28;20092;-70
2022/05/09 12:33:34;;;;;;;9.55;2.95;;;22.90;52.00;;;;;;5085131;28;20047;-70
2022/05/09 12:36:19;;;;;;;7.63;3.03;;;22.90;52.30;;;;;;5085671;28;20086;-70
2022/05/09 12:38:49;;;;;;;8.38;3.63;;;23.00;53.20;;;;;;5093377;28;20047;-70
2022/05/09 12:41:14;;;;;;;7.95;3.42;;;23.10;51.80;;;;;;5102556;28;20075;-70
2022/05/09 12:43:45;;;;;;;8.40;3.47;;;23.10;51.10;;;;;;5091242;28;20043;-72
2022/05/09 12:46:22;;;;;;;8.80;3.00;;;23.20;50.30;;;;;;5089873;28;20055;-72
2022/05/09 12:48:50;;;;;;;7.38;3.30;;;23.30;51.30;;;;;;5085197;28;20460;-72
2022/05/09 12:51:16;;;;;;;7.00;2.80;;;23.40;51.50;;;;;;5091243;28;20075;-72
2022/05/09 12:53:42;;;;;;;6.88;2.92;;;23.40;50.10;;;;;;5093880;28;20036;-72
2022/05/09 12:56:22;;;;;;;8.83;2.80;;;23.50;49.80;;;;;;5088286;28;20036;-72
2022/05/09 12:58:59;;;;;;;6.68;2.83;;;23.60;49.60;;;;;;5087770;28;20067;-72
2022/05/09 13:01:27;;;;;;;6.15;2.42;;;23.60;49.70;;;;;;5086422;28;20127;-72
2022/05/09 13:04:07;;;;;;;8.23;2.85;;;23.70;49.70;;;;;;5102102;28;20351;-71
2022/05/09 13:06:46;;;;;;;7.22;3.03;;;23.80;48.70;;;;;;5074381;28;20628;-72
2022/05/09 13:09:24;;;;;;;8.55;3.00;;;23.80;47.70;;;;;;5098546;28;20494;-71
2022/05/09 13:12:01;;;;;;;7.85;3.38;;;23.90;48.20;;;;;;5089657;28;20035;-71
2022/05/09 13:14:53;;;;;;;6.35;2.95;;;24.00;47.50;;;;;;5091288;28;20127;-71
2022/05/09 13:17:25;;;;;;;9.10;3.20;;;24.00;47.30;;;;;;5085913;28;20085;-71
2022/05/09 13:19:52;;;;;;;8.32;3.15;;;24.00;46.90;;;;;;5088391;28;20032;-70